Language selection

Weather shortcuts

Lake Nipigon: Past 24 Hour Conditions

 

Lake Of the Woods - 45148

03:00 PM EDT 18 July 2024Buoy position: 49.63N 94.57W
Disclaimer

This table is a summary of hourly weather conditions for the past 24 hours.
Please note that these observations might not always be representative of weather conditions over their associated marine area.

Date / Time
(EDT)
Wind(knots) Wave height(m) Wave period(s) Pressure(kPa) Air tempC) Water tempC)
18 July 2024
15:00 SSW 6 gusts 8 0.04 1.6 102.0 21 22
14:00 W 4 gusts 5 0.04 1.6 102.1 21 22
13:00 W 8 gusts 10 0.07 1.6 102.1 20 22
12:00 WSW 9 gusts 11 0.11 1.7 102.2 20 21
11:00 W 10 gusts 13 0.11 1.6 102.2 19 21
10:00 WSW 6 gusts 9 0.04 1.6 102.2 18 21
9:00 WSW 7 gusts 8 0.03 1.7 102.2 18 21
8:00 WSW 5 gusts 7 0.02 1.6 102.2 18 21
7:00 SSW 4 gusts 5 0.02 1.6 102.2 17 21
6:00 W 2 gusts 3 0.01 N/A 102.2 17 21
5:00 W 3 gusts 4 N/A N/A 102.2 17 22
4:00 W 3 gusts 4 0.01 N/A 102.2 17 22
3:00 W 4 gusts 5 0.01 1.6 102.2 17 22
2:00 NNW 8 gusts 9 0.02 1.7 102.2 17 22
1:00 NW 8 gusts 10 0.01 1.7 102.2 18 23
0:00 W 5 gusts 6 0.02 1.7 102.1 19 23
17 July 2024
23:00 W 3 gusts 4 0.02 1.6 102.1 20 23
22:00 NW 2 gusts 3 0.03 1.6 102.1 21 23
21:00 N 3 gusts 4 0.02 1.7 102.1 22 23
20:00 NNE 3 gusts 5 0.04 1.6 102.1 22 23
19:00 SSW 2 gusts 3 0.05 1.8 102.1 21 23
18:00 SE 2 gusts 4 0.06 1.8 102.2 20 23
17:00 NNE 3 gusts 6 0.05 1.6 102.2 20 23
16:00 N 2 gusts 3 0.05 1.7 102.2 19 22
15:00 N 3 gusts 6 0.05 1.6 102.2 19 22

Zoom-in to make a selection

Map of Great Lakes - Lake Superior marine weather areas Mid Superior - 45001 East Superior - 45004 West Superior - 45006 Slate Island - 45136 Lake Of the Woods - 45148 Kenora Airport Royal Island Armstrong Airport Caribou Island Marathon Airport Pukaskwa National Park Thunder Bay Airport Welcome Island Little Flatland Island Sault Ste. Marie Airport Wawa Airport
Legend:
buoy Buoy
land station Land Station

Great Lakes - Lake Superior Area

Another Region

Features

New Predicting and Alerting Coastal Flooding Program

Find out about coastal flooding coverage, forecasts and warnings in your region

Date modified: